sensor_id;sensor_type;location;lat;lon;timestamp;P1;durP1;ratioP1;P2;durP2;ratioP2
9467;SDS011;4772;52.382;9.752;2023-04-02T00:01:50;5.87;;;3.90;;
9467;SDS011;4772;52.382;9.752;2023-04-02T00:04:17;8.43;;;4.47;;
9467;SDS011;4772;52.382;9.752;2023-04-02T00:07:29;10.70;;;3.77;;
9467;SDS011;4772;52.382;9.752;2023-04-02T00:09:39;5.87;;;3.73;;
9467;SDS011;4772;52.382;9.752;2023-04-02T00:12:10;9.63;;;3.80;;
9467;SDS011;4772;52.382;9.752;2023-04-02T00:14:39;6.43;;;3.60;;
9467;SDS011;4772;52.382;9.752;2023-04-02T00:17:09;6.87;;;3.33;;
9467;SDS011;4772;52.382;9.752;2023-04-02T00:22:23;6.23;;;3.47;;
9467;SDS011;4772;52.382;9.752;2023-04-02T00:24:51;4.17;;;3.13;;
9467;SDS011;4772;52.382;9.752;2023-04-02T00:27:17;6.90;;;3.33;;
9467;SDS011;4772;52.382;9.752;2023-04-02T00:29:51;8.93;;;3.67;;
9467;SDS011;4772;52.382;9.752;2023-04-02T00:32:24;6.57;;;3.40;;
9467;SDS011;4772;52.382;9.752;2023-04-02T00:34:51;7.67;;;3.10;;
9467;SDS011;4772;52.382;9.752;2023-04-02T00:37:19;4.33;;;2.87;;
9467;SDS011;4772;52.382;9.752;2023-04-02T00:39:48;6.80;;;2.93;;
9467;SDS011;4772;52.382;9.752;2023-04-02T00:42:14;4.63;;;3.30;;
9467;SDS011;4772;52.382;9.752;2023-04-02T00:44:42;8.83;;;3.10;;
9467;SDS011;4772;52.382;9.752;2023-04-02T00:47:11;3.87;;;2.90;;
9467;SDS011;4772;52.382;9.752;2023-04-02T00:49:39;9.60;;;3.13;;
9467;SDS011;4772;52.382;9.752;2023-04-02T00:52:09;7.60;;;3.17;;
9467;SDS011;4772;52.382;9.752;2023-04-02T00:54:38;6.77;;;3.10;;
9467;SDS011;4772;52.382;9.752;2023-04-02T00:57:09;7.50;;;2.77;;
9467;SDS011;4772;52.382;9.752;2023-04-02T00:59:42;4.53;;;2.57;;
9467;SDS011;4772;52.382;9.752;2023-04-02T01:04:39;6.07;;;2.87;;
9467;SDS011;4772;52.382;9.752;2023-04-02T01:07:05;5.00;;;2.80;;
9467;SDS011;4772;52.382;9.752;2023-04-02T01:12:15;6.30;;;2.90;;
9467;SDS011;4772;52.382;9.752;2023-04-02T01:22:55;7.07;;;3.15;;
9467;SDS011;4772;52.382;9.752;2023-04-02T01:25:26;10.10;;;3.17;;
9467;SDS011;4772;52.382;9.752;2023-04-02T01:27:59;5.13;;;3.07;;
9467;SDS011;4772;52.382;9.752;2023-04-02T01:30:29;8.77;;;2.90;;
9467;SDS011;4772;52.382;9.752;2023-04-02T01:32:55;8.30;;;3.23;;
9467;SDS011;4772;52.382;9.752;2023-04-02T01:35:21;7.07;;;3.30;;
9467;SDS011;4772;52.382;9.752;2023-04-02T01:37:52;6.20;;;3.20;;
9467;SDS011;4772;52.382;9.752;2023-04-02T01:45:18;4.87;;;2.83;;
9467;SDS011;4772;52.382;9.752;2023-04-02T01:47:45;7.07;;;3.07;;
9467;SDS011;4772;52.382;9.752;2023-04-02T01:52:44;8.77;;;3.10;;
9467;SDS011;4772;52.382;9.752;2023-04-02T01:55:11;4.30;;;2.70;;
9467;SDS011;4772;52.382;9.752;2023-04-02T01:57:39;5.03;;;2.60;;
9467;SDS011;4772;52.382;9.752;2023-04-02T02:00:06;7.50;;;2.87;;
9467;SDS011;4772;52.382;9.752;2023-04-02T02:02:37;6.73;;;2.90;;
9467;SDS011;4772;52.382;9.752;2023-04-02T02:05:04;3.17;;;2.10;;
9467;SDS011;4772;52.382;9.752;2023-04-02T02:07:30;5.87;;;2.20;;
9467;SDS011;4772;52.382;9.752;2023-04-02T02:09:56;3.17;;;2.10;;
9467;SDS011;4772;52.382;9.752;2023-04-02T02:12:22;4.47;;;2.07;;
9467;SDS011;4772;52.382;9.752;2023-04-02T02:14:48;3.40;;;1.97;;
9467;SDS011;4772;52.382;9.752;2023-04-02T02:17:17;3.37;;;2.03;;
9467;SDS011;4772;52.382;9.752;2023-04-02T02:20:04;4.50;;;2.13;;
9467;SDS011;4772;52.382;9.752;2023-04-02T02:22:37;4.40;;;2.00;;
9467;SDS011;4772;52.382;9.752;2023-04-02T02:25:05;4.70;;;2.40;;
9467;SDS011;4772;52.382;9.752;2023-04-02T02:30:30;4.50;;;2.20;;
9467;SDS011;4772;52.382;9.752;2023-04-02T02:35:31;5.60;;;1.93;;
9467;SDS011;4772;52.382;9.752;2023-04-02T02:38:05;6.80;;;2.33;;
9467;SDS011;4772;52.382;9.752;2023-04-02T02:40:35;4.50;;;1.80;;
9467;SDS011;4772;52.382;9.752;2023-04-02T02:43:04;6.33;;;2.50;;
9467;SDS011;4772;52.382;9.752;2023-04-02T02:45:34;4.23;;;1.70;;
9467;SDS011;4772;52.382;9.752;2023-04-02T02:48:01;1.83;;;1.67;;
9467;SDS011;4772;52.382;9.752;2023-04-02T02:50:28;5.27;;;2.00;;
9467;SDS011;4772;52.382;9.752;2023-04-02T02:52:57;3.90;;;1.87;;
9467;SDS011;4772;52.382;9.752;2023-04-02T02:55:25;5.33;;;2.20;;
9467;SDS011;4772;52.382;9.752;2023-04-02T02:57:53;5.73;;;2.17;;
9467;SDS011;4772;52.382;9.752;2023-04-02T03:00:20;3.60;;;2.00;;
9467;SDS011;4772;52.382;9.752;2023-04-02T03:02:48;6.33;;;2.67;;
9467;SDS011;4772;52.382;9.752;2023-04-02T03:05:17;7.43;;;2.47;;
9467;SDS011;4772;52.382;9.752;2023-04-02T03:07:45;3.77;;;2.30;;
9467;SDS011;4772;52.382;9.752;2023-04-02T03:12:44;4.40;;;2.30;;
9467;SDS011;4772;52.382;9.752;2023-04-02T03:15:16;5.20;;;2.30;;
9467;SDS011;4772;52.382;9.752;2023-04-02T03:18:02;5.67;;;2.03;;
9467;SDS011;4772;52.382;9.752;2023-04-02T03:28:26;3.50;;;1.73;;
9467;SDS011;4772;52.382;9.752;2023-04-02T03:30:54;5.40;;;1.97;;
9467;SDS011;4772;52.382;9.752;2023-04-02T03:33:29;7.13;;;2.30;;
9467;SDS011;4772;52.382;9.752;2023-04-02T03:35:57;6.00;;;2.00;;
9467;SDS011;4772;52.382;9.752;2023-04-02T03:38:27;4.70;;;2.07;;
9467;SDS011;4772;52.382;9.752;2023-04-02T03:43:20;3.17;;;1.80;;
9467;SDS011;4772;52.382;9.752;2023-04-02T03:45:49;3.33;;;1.90;;
9467;SDS011;4772;52.382;9.752;2023-04-02T03:48:23;5.07;;;1.90;;
9467;SDS011;4772;52.382;9.752;2023-04-02T03:50:56;4.33;;;2.20;;
9467;SDS011;4772;52.382;9.752;2023-04-02T03:53:24;4.47;;;2.47;;
9467;SDS011;4772;52.382;9.752;2023-04-02T03:55:50;3.30;;;1.90;;
9467;SDS011;4772;52.382;9.752;2023-04-02T03:58:19;3.50;;;2.07;;
9467;SDS011;4772;52.382;9.752;2023-04-02T04:05:55;2.03;;;1.57;;
9467;SDS011;4772;52.382;9.752;2023-04-02T04:08:26;3.53;;;1.80;;
9467;SDS011;4772;52.382;9.752;2023-04-02T04:10:56;4.00;;;2.00;;
9467;SDS011;4772;52.382;9.752;2023-04-02T04:13:30;4.90;;;2.00;;
9467;SDS011;4772;52.382;9.752;2023-04-02T04:21:02;2.23;;;1.63;;
9467;SDS011;4772;52.382;9.752;2023-04-02T04:25:57;3.73;;;1.80;;
9467;SDS011;4772;52.382;9.752;2023-04-02T04:28:29;2.97;;;1.80;;
9467;SDS011;4772;52.382;9.752;2023-04-02T04:33:40;3.17;;;1.73;;
9467;SDS011;4772;52.382;9.752;2023-04-02T04:38:45;2.40;;;1.60;;
9467;SDS011;4772;52.382;9.752;2023-04-02T04:41:14;3.43;;;1.67;;
9467;SDS011;4772;52.382;9.752;2023-04-02T04:51:47;3.23;;;2.00;;
9467;SDS011;4772;52.382;9.752;2023-04-02T04:54:12;1.90;;;1.53;;
9467;SDS011;4772;52.382;9.752;2023-04-02T04:56:38;3.07;;;1.60;;
9467;SDS011;4772;52.382;9.752;2023-04-02T04:59:11;6.40;;;1.60;;
9467;SDS011;4772;52.382;9.752;2023-04-02T05:01:40;4.80;;;1.63;;
9467;SDS011;4772;52.382;9.752;2023-04-02T05:06:41;3.63;;;1.70;;
9467;SDS011;4772;52.382;9.752;2023-04-02T05:09:26;2.33;;;1.50;;
9467;SDS011;4772;52.382;9.752;2023-04-02T05:12:01;4.33;;;2.03;;
9467;SDS011;4772;52.382;9.752;2023-04-02T05:14:33;3.27;;;1.80;;
9467;SDS011;4772;52.382;9.752;2023-04-02T05:17:20;2.87;;;1.80;;
9467;SDS011;4772;52.382;9.752;2023-04-02T05:19:49;3.53;;;1.80;;
9467;SDS011;4772;52.382;9.752;2023-04-02T05:22:23;4.70;;;1.70;;
9467;SDS011;4772;52.382;9.752;2023-04-02T05:27:24;3.77;;;1.93;;
9467;SDS011;4772;52.382;9.752;2023-04-02T05:29:58;6.57;;;2.20;;
9467;SDS011;4772;52.382;9.752;2023-04-02T05:32:31;3.90;;;1.60;;
9467;SDS011;4772;52.382;9.752;2023-04-02T05:34:59;3.50;;;1.63;;
9467;SDS011;4772;52.382;9.752;2023-04-02T05:37:29;6.70;;;1.80;;
9467;SDS011;4772;52.382;9.752;2023-04-02T05:39:56;5.33;;;1.60;;
9467;SDS011;4772;52.382;9.752;2023-04-02T05:42:23;1.90;;;1.70;;
9467;SDS011;4772;52.382;9.752;2023-04-02T05:47:26;4.20;;;1.83;;
9467;SDS011;4772;52.382;9.752;2023-04-02T05:52:30;4.63;;;1.77;;
9467;SDS011;4772;52.382;9.752;2023-04-02T05:57:36;3.27;;;1.40;;
9467;SDS011;4772;52.382;9.752;2023-04-02T06:00:04;3.80;;;1.80;;
9467;SDS011;4772;52.382;9.752;2023-04-02T06:02:34;9.67;;;1.80;;
9467;SDS011;4772;52.382;9.752;2023-04-02T06:05:03;3.27;;;1.70;;
9467;SDS011;4772;52.382;9.752;2023-04-02T06:07:32;3.87;;;1.50;;
9467;SDS011;4772;52.382;9.752;2023-04-02T06:14:53;3.83;;;1.40;;
9467;SDS011;4772;52.382;9.752;2023-04-02T06:17:19;5.20;;;1.93;;
9467;SDS011;4772;52.382;9.752;2023-04-02T06:19:45;1.50;;;1.30;;
9467;SDS011;4772;52.382;9.752;2023-04-02T06:24:58;4.07;;;1.60;;
9467;SDS011;4772;52.382;9.752;2023-04-02T06:27:25;2.93;;;1.60;;
9467;SDS011;4772;52.382;9.752;2023-04-02T06:29:52;3.47;;;1.53;;
9467;SDS011;4772;52.382;9.752;2023-04-02T06:32:21;3.10;;;1.67;;
9467;SDS011;4772;52.382;9.752;2023-04-02T06:34:49;3.83;;;1.67;;
9467;SDS011;4772;52.382;9.752;2023-04-02T06:37:18;4.27;;;1.67;;
9467;SDS011;4772;52.382;9.752;2023-04-02T06:39:45;3.87;;;1.80;;
9467;SDS011;4772;52.382;9.752;2023-04-02T06:42:13;3.67;;;1.70;;
9467;SDS011;4772;52.382;9.752;2023-04-02T06:44:41;3.23;;;1.67;;
9467;SDS011;4772;52.382;9.752;2023-04-02T06:50:14;5.37;;;1.57;;
9467;SDS011;4772;52.382;9.752;2023-04-02T06:58:05;3.87;;;1.50;;
9467;SDS011;4772;52.382;9.752;2023-04-02T07:00:41;2.50;;;1.53;;
9467;SDS011;4772;52.382;9.752;2023-04-02T07:05:49;3.00;;;1.60;;
9467;SDS011;4772;52.382;9.752;2023-04-02T07:08:15;4.73;;;1.67;;
9467;SDS011;4772;52.382;9.752;2023-04-02T07:10:41;4.43;;;1.83;;
9467;SDS011;4772;52.382;9.752;2023-04-02T07:13:17;4.00;;;1.70;;
9467;SDS011;4772;52.382;9.752;2023-04-02T07:15:44;2.43;;;1.67;;
9467;SDS011;4772;52.382;9.752;2023-04-02T07:18:29;4.77;;;1.70;;
9467;SDS011;4772;52.382;9.752;2023-04-02T07:20:56;3.23;;;1.67;;
9467;SDS011;4772;52.382;9.752;2023-04-02T07:23:22;3.20;;;1.40;;
9467;SDS011;4772;52.382;9.752;2023-04-02T07:25:48;3.33;;;1.90;;
9467;SDS011;4772;52.382;9.752;2023-04-02T07:28:15;4.30;;;1.70;;
9467;SDS011;4772;52.382;9.752;2023-04-02T07:30:42;4.23;;;1.67;;
9467;SDS011;4772;52.382;9.752;2023-04-02T07:33:11;4.63;;;1.60;;
9467;SDS011;4772;52.382;9.752;2023-04-02T07:35:37;2.90;;;1.50;;
9467;SDS011;4772;52.382;9.752;2023-04-02T07:38:03;3.53;;;1.77;;
9467;SDS011;4772;52.382;9.752;2023-04-02T07:40:29;5.33;;;1.80;;
9467;SDS011;4772;52.382;9.752;2023-04-02T07:42:55;3.17;;;1.70;;
9467;SDS011;4772;52.382;9.752;2023-04-02T07:45:21;3.43;;;1.77;;
9467;SDS011;4772;52.382;9.752;2023-04-02T07:47:47;3.30;;;1.63;;
9467;SDS011;4772;52.382;9.752;2023-04-02T07:50:13;2.80;;;1.90;;
9467;SDS011;4772;52.382;9.752;2023-04-02T07:52:39;2.47;;;1.60;;
9467;SDS011;4772;52.382;9.752;2023-04-02T07:55:09;2.37;;;1.80;;
9467;SDS011;4772;52.382;9.752;2023-04-02T07:57:40;3.50;;;1.70;;
9467;SDS011;4772;52.382;9.752;2023-04-02T08:00:12;5.00;;;1.67;;
9467;SDS011;4772;52.382;9.752;2023-04-02T08:02:39;3.20;;;1.60;;
9467;SDS011;4772;52.382;9.752;2023-04-02T08:05:05;3.43;;;1.60;;
9467;SDS011;4772;52.382;9.752;2023-04-02T08:07:31;4.07;;;1.50;;
9467;SDS011;4772;52.382;9.752;2023-04-02T08:09:58;3.30;;;1.70;;
9467;SDS011;4772;52.382;9.752;2023-04-02T08:12:24;4.10;;;1.70;;
9467;SDS011;4772;52.382;9.752;2023-04-02T08:14:50;3.63;;;1.80;;
9467;SDS011;4772;52.382;9.752;2023-04-02T08:17:16;4.40;;;1.50;;
9467;SDS011;4772;52.382;9.752;2023-04-02T08:19:42;3.93;;;1.60;;
9467;SDS011;4772;52.382;9.752;2023-04-02T08:22:08;5.03;;;1.83;;
9467;SDS011;4772;52.382;9.752;2023-04-02T08:24:34;3.07;;;1.60;;
9467;SDS011;4772;52.382;9.752;2023-04-02T08:27:00;3.20;;;1.67;;
9467;SDS011;4772;52.382;9.752;2023-04-02T08:29:26;4.53;;;1.73;;
9467;SDS011;4772;52.382;9.752;2023-04-02T08:31:56;3.07;;;1.60;;
9467;SDS011;4772;52.382;9.752;2023-04-02T08:34:22;4.00;;;1.87;;
9467;SDS011;4772;52.382;9.752;2023-04-02T08:36:48;3.80;;;1.73;;
9467;SDS011;4772;52.382;9.752;2023-04-02T08:39:14;1.80;;;1.30;;
9467;SDS011;4772;52.382;9.752;2023-04-02T08:41:46;2.07;;;1.47;;
9467;SDS011;4772;52.382;9.752;2023-04-02T08:44:17;6.32;;;1.90;;
9467;SDS011;4772;52.382;9.752;2023-04-02T08:46:47;3.77;;;1.73;;
9467;SDS011;4772;52.382;9.752;2023-04-02T08:49:15;3.63;;;1.53;;
9467;SDS011;4772;52.382;9.752;2023-04-02T08:51:42;4.37;;;1.70;;
9467;SDS011;4772;52.382;9.752;2023-04-02T08:54:27;2.53;;;1.57;;
9467;SDS011;4772;52.382;9.752;2023-04-02T08:56:55;2.40;;;1.37;;
9467;SDS011;4772;52.382;9.752;2023-04-02T08:59:31;2.77;;;1.23;;
9467;SDS011;4772;52.382;9.752;2023-04-02T09:01:59;2.70;;;1.73;;
9467;SDS011;4772;52.382;9.752;2023-04-02T09:04:27;3.13;;;1.30;;
9467;SDS011;4772;52.382;9.752;2023-04-02T09:06:54;6.27;;;1.73;;
9467;SDS011;4772;52.382;9.752;2023-04-02T09:09:21;2.07;;;1.40;;
9467;SDS011;4772;52.382;9.752;2023-04-02T09:11:55;3.03;;;1.73;;
9467;SDS011;4772;52.382;9.752;2023-04-02T09:17:00;4.13;;;1.73;;
9467;SDS011;4772;52.382;9.752;2023-04-02T09:19:32;3.70;;;1.20;;
9467;SDS011;4772;52.382;9.752;2023-04-02T09:24:30;2.40;;;1.50;;
9467;SDS011;4772;52.382;9.752;2023-04-02T09:26:56;3.57;;;1.63;;
9467;SDS011;4772;52.382;9.752;2023-04-02T09:34:31;3.27;;;1.60;;
9467;SDS011;4772;52.382;9.752;2023-04-02T09:37:13;3.77;;;1.47;;
9467;SDS011;4772;52.382;9.752;2023-04-02T09:39:40;4.50;;;1.53;;
9467;SDS011;4772;52.382;9.752;2023-04-02T09:42:07;2.93;;;1.70;;
9467;SDS011;4772;52.382;9.752;2023-04-02T09:44:52;1.97;;;1.50;;
9467;SDS011;4772;52.382;9.752;2023-04-02T09:47:24;1.70;;;1.40;;
9467;SDS011;4772;52.382;9.752;2023-04-02T09:49:52;2.37;;;1.70;;
9467;SDS011;4772;52.382;9.752;2023-04-02T09:52:21;4.87;;;1.80;;
9467;SDS011;4772;52.382;9.752;2023-04-02T09:55:16;4.67;;;1.40;;
9467;SDS011;4772;52.382;9.752;2023-04-02T09:57:43;4.17;;;1.50;;
9467;SDS011;4772;52.382;9.752;2023-04-02T10:02:40;3.17;;;1.60;;
9467;SDS011;4772;52.382;9.752;2023-04-02T10:05:14;3.07;;;1.80;;
9467;SDS011;4772;52.382;9.752;2023-04-02T10:07:42;3.20;;;1.50;;
9467;SDS011;4772;52.382;9.752;2023-04-02T10:10:20;1.83;;;1.40;;
9467;SDS011;4772;52.382;9.752;2023-04-02T10:12:48;4.47;;;1.40;;
9467;SDS011;4772;52.382;9.752;2023-04-02T10:15:18;2.50;;;1.50;;
9467;SDS011;4772;52.382;9.752;2023-04-02T10:17:48;2.30;;;1.43;;
9467;SDS011;4772;52.382;9.752;2023-04-02T10:20:16;2.53;;;1.30;;
9467;SDS011;4772;52.382;9.752;2023-04-02T10:22:43;2.03;;;1.50;;
9467;SDS011;4772;52.382;9.752;2023-04-02T10:25:14;2.70;;;1.53;;
9467;SDS011;4772;52.382;9.752;2023-04-02T10:27:48;2.30;;;1.37;;
9467;SDS011;4772;52.382;9.752;2023-04-02T10:32:47;3.40;;;1.40;;
9467;SDS011;4772;52.382;9.752;2023-04-02T10:53:13;1.50;;;1.40;;
9467;SDS011;4772;52.382;9.752;2023-04-02T10:55:44;4.30;;;1.67;;
9467;SDS011;4772;52.382;9.752;2023-04-02T10:58:16;1.70;;;1.30;;
9467;SDS011;4772;52.382;9.752;2023-04-02T11:00:43;2.87;;;1.50;;
9467;SDS011;4772;52.382;9.752;2023-04-02T11:03:13;5.97;;;1.70;;
9467;SDS011;4772;52.382;9.752;2023-04-02T11:08:25;2.23;;;1.53;;
9467;SDS011;4772;52.382;9.752;2023-04-02T11:10:58;2.63;;;1.63;;
9467;SDS011;4772;52.382;9.752;2023-04-02T11:15:52;2.20;;;1.50;;
9467;SDS011;4772;52.382;9.752;2023-04-02T11:18:28;2.33;;;1.37;;
9467;SDS011;4772;52.382;9.752;2023-04-02T11:21:01;2.80;;;1.30;;
9467;SDS011;4772;52.382;9.752;2023-04-02T11:23:29;4.30;;;1.83;;
9467;SDS011;4772;52.382;9.752;2023-04-02T11:28:40;2.40;;;1.67;;
9467;SDS011;4772;52.382;9.752;2023-04-02T11:31:06;3.83;;;2.43;;
9467;SDS011;4772;52.382;9.752;2023-04-02T11:33:41;2.33;;;1.30;;
9467;SDS011;4772;52.382;9.752;2023-04-02T11:38:52;2.43;;;1.50;;
9467;SDS011;4772;52.382;9.752;2023-04-02T11:41:58;3.37;;;2.27;;
9467;SDS011;4772;52.382;9.752;2023-04-02T11:44:21;3.83;;;2.40;;
9467;SDS011;4772;52.382;9.752;2023-04-02T11:46:47;2.60;;;1.83;;
9467;SDS011;4772;52.382;9.752;2023-04-02T11:51:59;2.90;;;1.33;;
9467;SDS011;4772;52.382;9.752;2023-04-02T11:54:27;2.80;;;1.80;;
9467;SDS011;4772;52.382;9.752;2023-04-02T11:56:59;2.97;;;1.60;;
9467;SDS011;4772;52.382;9.752;2023-04-02T12:04:47;1.73;;;1.20;;
9467;SDS011;4772;52.382;9.752;2023-04-02T12:10:25;3.20;;;1.30;;
9467;SDS011;4772;52.382;9.752;2023-04-02T12:12:49;2.17;;;1.85;;
9467;SDS011;4772;52.382;9.752;2023-04-02T12:18:11;2.17;;;1.38;;
9467;SDS011;4772;52.382;9.752;2023-04-02T12:20:37;2.88;;;1.30;;
9467;SDS011;4772;52.382;9.752;2023-04-02T12:23:04;3.95;;;1.35;;
9467;SDS011;4772;52.382;9.752;2023-04-02T12:25:33;2.03;;;1.30;;
9467;SDS011;4772;52.382;9.752;2023-04-02T12:28:05;2.23;;;1.30;;
9467;SDS011;4772;52.382;9.752;2023-04-02T12:30:33;1.73;;;1.20;;
9467;SDS011;4772;52.382;9.752;2023-04-02T12:35:44;3.10;;;1.20;;
9467;SDS011;4772;52.382;9.752;2023-04-02T12:38:21;5.03;;;1.30;;
9467;SDS011;4772;52.382;9.752;2023-04-02T12:40:57;2.57;;;1.20;;
9467;SDS011;4772;52.382;9.752;2023-04-02T12:43:24;5.37;;;1.60;;
9467;SDS011;4772;52.382;9.752;2023-04-02T12:45:51;2.53;;;1.37;;
9467;SDS011;4772;52.382;9.752;2023-04-02T12:48:17;1.63;;;1.10;;
9467;SDS011;4772;52.382;9.752;2023-04-02T12:50:43;2.37;;;1.20;;
9467;SDS011;4772;52.382;9.752;2023-04-02T12:53:52;1.60;;;1.20;;
9467;SDS011;4772;52.382;9.752;2023-04-02T12:55:59;2.60;;;1.60;;
9467;SDS011;4772;52.382;9.752;2023-04-02T13:03:38;3.40;;;1.57;;
9467;SDS011;4772;52.382;9.752;2023-04-02T13:06:17;3.00;;;1.30;;
9467;SDS011;4772;52.382;9.752;2023-04-02T13:08:44;2.20;;;1.20;;
9467;SDS011;4772;52.382;9.752;2023-04-02T13:11:10;2.83;;;1.57;;
9467;SDS011;4772;52.382;9.752;2023-04-02T13:13:37;3.57;;;1.60;;
9467;SDS011;4772;52.382;9.752;2023-04-02T13:18:43;2.53;;;1.23;;
9467;SDS011;4772;52.382;9.752;2023-04-02T13:23:41;6.17;;;1.77;;
9467;SDS011;4772;52.382;9.752;2023-04-02T13:26:15;3.17;;;1.50;;
9467;SDS011;4772;52.382;9.752;2023-04-02T13:28:43;2.80;;;1.50;;
9467;SDS011;4772;52.382;9.752;2023-04-02T13:31:20;2.73;;;1.23;;
9467;SDS011;4772;52.382;9.752;2023-04-02T13:33:46;3.37;;;1.30;;
9467;SDS011;4772;52.382;9.752;2023-04-02T13:36:13;3.27;;;1.50;;
9467;SDS011;4772;52.382;9.752;2023-04-02T13:38:42;2.20;;;1.50;;
9467;SDS011;4772;52.382;9.752;2023-04-02T13:41:16;1.90;;;0.90;;
9467;SDS011;4772;52.382;9.752;2023-04-02T13:43:43;3.17;;;1.20;;
9467;SDS011;4772;52.382;9.752;2023-04-02T13:46:10;3.40;;;1.33;;
9467;SDS011;4772;52.382;9.752;2023-04-02T13:48:41;3.17;;;1.23;;
9467;SDS011;4772;52.382;9.752;2023-04-02T13:51:08;2.80;;;1.10;;
9467;SDS011;4772;52.382;9.752;2023-04-02T13:53:35;1.23;;;0.93;;
9467;SDS011;4772;52.382;9.752;2023-04-02T13:56:01;1.53;;;1.03;;
9467;SDS011;4772;52.382;9.752;2023-04-02T13:58:27;2.23;;;1.20;;
9467;SDS011;4772;52.382;9.752;2023-04-02T14:00:53;2.00;;;1.00;;
9467;SDS011;4772;52.382;9.752;2023-04-02T14:03:22;1.53;;;1.20;;
9467;SDS011;4772;52.382;9.752;2023-04-02T14:06:02;2.27;;;1.00;;
9467;SDS011;4772;52.382;9.752;2023-04-02T14:28:55;2.50;;;1.20;;
9467;SDS011;4772;52.382;9.752;2023-04-02T14:31:31;1.60;;;1.20;;
9467;SDS011;4772;52.382;9.752;2023-04-02T14:34:14;1.83;;;1.03;;
9467;SDS011;4772;52.382;9.752;2023-04-02T14:36:44;1.57;;;1.00;;
9467;SDS011;4772;52.382;9.752;2023-04-02T14:44:29;1.63;;;1.10;;
9467;SDS011;4772;52.382;9.752;2023-04-02T14:47:16;4.00;;;1.20;;
9467;SDS011;4772;52.382;9.752;2023-04-02T14:49:43;1.93;;;1.10;;
9467;SDS011;4772;52.382;9.752;2023-04-02T14:52:14;1.60;;;0.97;;
9467;SDS011;4772;52.382;9.752;2023-04-02T14:59:55;2.40;;;1.20;;
9467;SDS011;4772;52.382;9.752;2023-04-02T15:02:23;1.50;;;0.97;;
9467;SDS011;4772;52.382;9.752;2023-04-02T15:04:58;2.57;;;1.20;;
9467;SDS011;4772;52.382;9.752;2023-04-02T15:07:26;1.60;;;1.27;;
9467;SDS011;4772;52.382;9.752;2023-04-02T15:09:57;2.43;;;1.20;;
9467;SDS011;4772;52.382;9.752;2023-04-02T15:12:28;3.73;;;1.40;;
9467;SDS011;4772;52.382;9.752;2023-04-02T15:14:57;1.20;;;1.00;;
9467;SDS011;4772;52.382;9.752;2023-04-02T15:17:26;2.57;;;1.20;;
9467;SDS011;4772;52.382;9.752;2023-04-02T15:19:56;1.80;;;1.20;;
9467;SDS011;4772;52.382;9.752;2023-04-02T15:22:26;3.57;;;1.80;;
9467;SDS011;4772;52.382;9.752;2023-04-02T15:24:57;2.97;;;1.30;;
9467;SDS011;4772;52.382;9.752;2023-04-02T15:27:30;2.57;;;1.43;;
9467;SDS011;4772;52.382;9.752;2023-04-02T15:30:02;2.13;;;1.20;;
9467;SDS011;4772;52.382;9.752;2023-04-02T15:35:43;2.43;;;1.37;;
9467;SDS011;4772;52.382;9.752;2023-04-02T15:40:21;2.40;;;1.30;;
9467;SDS011;4772;52.382;9.752;2023-04-02T15:43:01;1.97;;;1.03;;
9467;SDS011;4772;52.382;9.752;2023-04-02T15:45:40;3.77;;;1.80;;
9467;SDS011;4772;52.382;9.752;2023-04-02T15:48:21;2.50;;;1.53;;
9467;SDS011;4772;52.382;9.752;2023-04-02T15:51:12;3.60;;;1.30;;
9467;SDS011;4772;52.382;9.752;2023-04-02T15:58:50;2.97;;;1.30;;
9467;SDS011;4772;52.382;9.752;2023-04-02T16:04:02;2.43;;;1.20;;
9467;SDS011;4772;52.382;9.752;2023-04-02T16:11:37;3.00;;;1.20;;
9467;SDS011;4772;52.382;9.752;2023-04-02T16:16:35;4.07;;;1.50;;
9467;SDS011;4772;52.382;9.752;2023-04-02T16:19:05;2.73;;;1.30;;
9467;SDS011;4772;52.382;9.752;2023-04-02T16:21:33;3.80;;;1.27;;
9467;SDS011;4772;52.382;9.752;2023-04-02T16:24:04;1.27;;;0.90;;
9467;SDS011;4772;52.382;9.752;2023-04-02T16:26:42;1.27;;;1.10;;
9467;SDS011;4772;52.382;9.752;2023-04-02T16:34:26;3.17;;;1.27;;
9467;SDS011;4772;52.382;9.752;2023-04-02T16:46:41;2.83;;;1.27;;
9467;SDS011;4772;52.382;9.752;2023-04-02T16:49:13;3.23;;;1.30;;
9467;SDS011;4772;52.382;9.752;2023-04-02T16:54:12;3.17;;;1.40;;
9467;SDS011;4772;52.382;9.752;2023-04-02T16:56:51;1.53;;;1.10;;
9467;SDS011;4772;52.382;9.752;2023-04-02T17:04:21;3.00;;;1.40;;
9467;SDS011;4772;52.382;9.752;2023-04-02T17:09:51;2.33;;;1.30;;
9467;SDS011;4772;52.382;9.752;2023-04-02T17:12:22;2.80;;;1.40;;
9467;SDS011;4772;52.382;9.752;2023-04-02T17:15:26;2.97;;;1.37;;
9467;SDS011;4772;52.382;9.752;2023-04-02T17:17:44;4.37;;;1.70;;
9467;SDS011;4772;52.382;9.752;2023-04-02T17:20:16;2.23;;;1.37;;
9467;SDS011;4772;52.382;9.752;2023-04-02T17:22:43;3.13;;;1.20;;
9467;SDS011;4772;52.382;9.752;2023-04-02T17:25:13;3.73;;;1.30;;
9467;SDS011;4772;52.382;9.752;2023-04-02T17:27:44;3.60;;;1.20;;
9467;SDS011;4772;52.382;9.752;2023-04-02T17:32:38;1.90;;;1.27;;
9467;SDS011;4772;52.382;9.752;2023-04-02T17:37:42;2.93;;;1.10;;
9467;SDS011;4772;52.382;9.752;2023-04-02T17:40:23;1.53;;;1.40;;
9467;SDS011;4772;52.382;9.752;2023-04-02T17:43:03;3.70;;;1.47;;
9467;SDS011;4772;52.382;9.752;2023-04-02T17:45:51;2.87;;;1.43;;
9467;SDS011;4772;52.382;9.752;2023-04-02T17:50:44;2.03;;;1.30;;
9467;SDS011;4772;52.382;9.752;2023-04-02T17:58:42;2.23;;;1.03;;
9467;SDS011;4772;52.382;9.752;2023-04-02T18:01:20;2.63;;;1.20;;
9467;SDS011;4772;52.382;9.752;2023-04-02T18:06:19;2.40;;;1.20;;
9467;SDS011;4772;52.382;9.752;2023-04-02T18:09:01;3.03;;;1.47;;
9467;SDS011;4772;52.382;9.752;2023-04-02T18:13:58;2.47;;;1.23;;
9467;SDS011;4772;52.382;9.752;2023-04-02T18:18:57;4.77;;;1.60;;
9467;SDS011;4772;52.382;9.752;2023-04-02T18:21:32;4.83;;;1.40;;
9467;SDS011;4772;52.382;9.752;2023-04-02T18:24:23;3.60;;;1.67;;
9467;SDS011;4772;52.382;9.752;2023-04-02T18:26:55;2.23;;;1.40;;
9467;SDS011;4772;52.382;9.752;2023-04-02T18:29:34;2.47;;;1.30;;
9467;SDS011;4772;52.382;9.752;2023-04-02T18:37:12;4.03;;;1.60;;
9467;SDS011;4772;52.382;9.752;2023-04-02T18:42:13;3.03;;;1.40;;
9467;SDS011;4772;52.382;9.752;2023-04-02T18:47:33;3.63;;;1.67;;
9467;SDS011;4772;52.382;9.752;2023-04-02T18:52:47;4.17;;;1.60;;
9467;SDS011;4772;52.382;9.752;2023-04-02T18:55:17;4.10;;;1.70;;
9467;SDS011;4772;52.382;9.752;2023-04-02T18:57:45;3.97;;;1.70;;
9467;SDS011;4772;52.382;9.752;2023-04-02T19:03:02;4.97;;;3.00;;
9467;SDS011;4772;52.382;9.752;2023-04-02T19:05:38;3.87;;;1.80;;
9467;SDS011;4772;52.382;9.752;2023-04-02T19:08:07;4.60;;;2.07;;
9467;SDS011;4772;52.382;9.752;2023-04-02T19:10:38;3.67;;;1.80;;
9467;SDS011;4772;52.382;9.752;2023-04-02T19:13:15;5.27;;;1.50;;
9467;SDS011;4772;52.382;9.752;2023-04-02T19:15:48;3.77;;;1.73;;
9467;SDS011;4772;52.382;9.752;2023-04-02T19:18:36;3.37;;;1.43;;
9467;SDS011;4772;52.382;9.752;2023-04-02T19:21:52;4.00;;;1.80;;
9467;SDS011;4772;52.382;9.752;2023-04-02T19:26:28;4.80;;;2.00;;
9467;SDS011;4772;52.382;9.752;2023-04-02T19:29:05;2.90;;;1.60;;
9467;SDS011;4772;52.382;9.752;2023-04-02T19:31:37;3.47;;;1.50;;
9467;SDS011;4772;52.382;9.752;2023-04-02T19:41:39;3.33;;;1.53;;
9467;SDS011;4772;52.382;9.752;2023-04-02T19:44:08;3.00;;;1.40;;
9467;SDS011;4772;52.382;9.752;2023-04-02T19:46:34;2.97;;;1.53;;
9467;SDS011;4772;52.382;9.752;2023-04-02T19:51:32;4.10;;;1.80;;
9467;SDS011;4772;52.382;9.752;2023-04-02T19:53:59;3.63;;;1.70;;
9467;SDS011;4772;52.382;9.752;2023-04-02T19:56:25;3.97;;;1.80;;
9467;SDS011;4772;52.382;9.752;2023-04-02T19:58:52;3.17;;;1.60;;
9467;SDS011;4772;52.382;9.752;2023-04-02T20:01:18;2.90;;;1.67;;
9467;SDS011;4772;52.382;9.752;2023-04-02T20:03:44;5.13;;;1.73;;
9467;SDS011;4772;52.382;9.752;2023-04-02T20:06:10;3.13;;;1.60;;
9467;SDS011;4772;52.382;9.752;2023-04-02T20:08:36;2.83;;;1.37;;
9467;SDS011;4772;52.382;9.752;2023-04-02T20:11:02;2.53;;;1.30;;
9467;SDS011;4772;52.382;9.752;2023-04-02T20:13:28;4.40;;;1.80;;
9467;SDS011;4772;52.382;9.752;2023-04-02T20:15:58;2.50;;;1.40;;
9467;SDS011;4772;52.382;9.752;2023-04-02T20:18:25;4.90;;;1.40;;
9467;SDS011;4772;52.382;9.752;2023-04-02T20:20:51;3.40;;;1.63;;
9467;SDS011;4772;52.382;9.752;2023-04-02T20:23:17;4.10;;;1.50;;
9467;SDS011;4772;52.382;9.752;2023-04-02T20:25:44;3.00;;;1.50;;
9467;SDS011;4772;52.382;9.752;2023-04-02T20:28:11;2.93;;;1.50;;
9467;SDS011;4772;52.382;9.752;2023-04-02T20:30:37;1.73;;;1.23;;